sensor_id;sensor_type;location;lat;lon;timestamp;P1;durP1;ratioP1;P2;durP2;ratioP2
73695;SDS011;62000;42.262;12.210;2023-11-18T00:01:31;5.72;;;1.20;;
73695;SDS011;62000;42.262;12.210;2023-11-18T00:04:00;4.03;;;0.82;;
73695;SDS011;62000;42.262;12.210;2023-11-18T00:06:27;3.55;;;0.93;;
73695;SDS011;62000;42.262;12.210;2023-11-18T00:08:53;5.20;;;0.88;;
73695;SDS011;62000;42.262;12.210;2023-11-18T00:11:20;3.47;;;0.82;;
73695;SDS011;62000;42.262;12.210;2023-11-18T00:13:47;3.28;;;0.80;;
73695;SDS011;62000;42.262;12.210;2023-11-18T00:16:13;3.78;;;0.82;;
73695;SDS011;62000;42.262;12.210;2023-11-18T00:18:42;7.93;;;1.35;;
73695;SDS011;62000;42.262;12.210;2023-11-18T00:21:09;2.38;;;0.52;;
73695;SDS011;62000;42.262;12.210;2023-11-18T00:23:35;4.00;;;0.75;;
73695;SDS011;62000;42.262;12.210;2023-11-18T00:26:02;4.05;;;1.00;;
73695;SDS011;62000;42.262;12.210;2023-11-18T00:28:28;4.68;;;0.95;;
73695;SDS011;62000;42.262;12.210;2023-11-18T00:30:55;4.95;;;1.13;;
73695;SDS011;62000;42.262;12.210;2023-11-18T00:33:21;4.35;;;1.00;;
73695;SDS011;62000;42.262;12.210;2023-11-18T00:35:48;5.70;;;1.35;;
73695;SDS011;62000;42.262;12.210;2023-11-18T00:38:14;4.20;;;0.90;;
73695;SDS011;62000;42.262;12.210;2023-11-18T00:40:41;2.58;;;0.52;;
73695;SDS011;62000;42.262;12.210;2023-11-18T00:43:07;2.47;;;0.45;;
73695;SDS011;62000;42.262;12.210;2023-11-18T00:45:33;4.63;;;0.80;;
73695;SDS011;62000;42.262;12.210;2023-11-18T00:48:00;6.93;;;0.70;;
73695;SDS011;62000;42.262;12.210;2023-11-18T00:50:26;3.10;;;0.52;;
73695;SDS011;62000;42.262;12.210;2023-11-18T00:52:53;2.47;;;0.50;;
73695;SDS011;62000;42.262;12.210;2023-11-18T00:55:19;3.65;;;0.70;;
73695;SDS011;62000;42.262;12.210;2023-11-18T00:57:46;2.60;;;0.70;;
73695;SDS011;62000;42.262;12.210;2023-11-18T01:00:21;3.36;;;0.84;;
73695;SDS011;62000;42.262;12.210;2023-11-18T01:02:48;3.30;;;0.65;;
73695;SDS011;62000;42.262;12.210;2023-11-18T01:05:15;3.10;;;0.52;;
73695;SDS011;62000;42.262;12.210;2023-11-18T01:07:41;4.95;;;0.65;;
73695;SDS011;62000;42.262;12.210;2023-11-18T01:10:09;2.28;;;0.65;;
73695;SDS011;62000;42.262;12.210;2023-11-18T01:12:35;2.70;;;0.57;;
73695;SDS011;62000;42.262;12.210;2023-11-18T01:15:03;3.92;;;0.75;;
73695;SDS011;62000;42.262;12.210;2023-11-18T01:17:29;2.97;;;0.50;;
73695;SDS011;62000;42.262;12.210;2023-11-18T01:19:57;3.47;;;0.60;;
73695;SDS011;62000;42.262;12.210;2023-11-18T01:22:24;5.47;;;0.70;;
73695;SDS011;62000;42.262;12.210;2023-11-18T01:24:50;3.47;;;0.50;;
73695;SDS011;62000;42.262;12.210;2023-11-18T01:27:17;3.25;;;0.60;;
73695;SDS011;62000;42.262;12.210;2023-11-18T01:29:45;4.60;;;0.75;;
73695;SDS011;62000;42.262;12.210;2023-11-18T01:32:12;4.15;;;0.50;;
73695;SDS011;62000;42.262;12.210;2023-11-18T01:34:39;4.13;;;0.93;;
73695;SDS011;62000;42.262;12.210;2023-11-18T01:37:06;4.15;;;0.70;;
73695;SDS011;62000;42.262;12.210;2023-11-18T01:39:33;2.88;;;0.50;;
73695;SDS011;62000;42.262;12.210;2023-11-18T01:41:59;3.72;;;0.52;;
73695;SDS011;62000;42.262;12.210;2023-11-18T01:44:26;3.83;;;0.70;;
73695;SDS011;62000;42.262;12.210;2023-11-18T01:47:02;2.78;;;0.40;;
73695;SDS011;62000;42.262;12.210;2023-11-18T01:49:31;3.30;;;0.63;;
73695;SDS011;62000;42.262;12.210;2023-11-18T01:51:58;4.28;;;0.55;;
73695;SDS011;62000;42.262;12.210;2023-11-18T01:54:27;2.03;;;0.40;;
73695;SDS011;62000;42.262;12.210;2023-11-18T01:56:53;2.25;;;0.50;;
73695;SDS011;62000;42.262;12.210;2023-11-18T01:59:20;2.85;;;0.52;;
73695;SDS011;62000;42.262;12.210;2023-11-18T02:01:48;2.97;;;0.65;;
73695;SDS011;62000;42.262;12.210;2023-11-18T02:04:16;4.70;;;0.98;;
73695;SDS011;62000;42.262;12.210;2023-11-18T02:06:45;3.17;;;0.50;;
73695;SDS011;62000;42.262;12.210;2023-11-18T02:09:14;4.50;;;0.70;;
73695;SDS011;62000;42.262;12.210;2023-11-18T02:11:45;4.00;;;0.88;;
73695;SDS011;62000;42.262;12.210;2023-11-18T02:14:18;2.97;;;0.60;;
73695;SDS011;62000;42.262;12.210;2023-11-18T02:16:48;2.88;;;0.65;;
73695;SDS011;62000;42.262;12.210;2023-11-18T02:19:24;3.88;;;0.70;;
73695;SDS011;62000;42.262;12.210;2023-11-18T02:21:51;3.65;;;0.70;;
73695;SDS011;62000;42.262;12.210;2023-11-18T02:24:29;3.00;;;0.60;;
73695;SDS011;62000;42.262;12.210;2023-11-18T02:26:59;6.65;;;1.25;;
73695;SDS011;62000;42.262;12.210;2023-11-18T02:29:27;3.63;;;0.68;;
73695;SDS011;62000;42.262;12.210;2023-11-18T02:31:57;3.38;;;0.55;;
73695;SDS011;62000;42.262;12.210;2023-11-18T02:34:30;3.47;;;0.68;;
73695;SDS011;62000;42.262;12.210;2023-11-18T02:37:00;2.88;;;0.43;;
73695;SDS011;62000;42.262;12.210;2023-11-18T02:39:35;4.15;;;0.85;;
73695;SDS011;62000;42.262;12.210;2023-11-18T02:42:04;3.00;;;0.68;;
73695;SDS011;62000;42.262;12.210;2023-11-18T02:44:35;4.85;;;0.60;;
73695;SDS011;62000;42.262;12.210;2023-11-18T02:47:03;4.13;;;0.70;;
73695;SDS011;62000;42.262;12.210;2023-11-18T02:49:34;3.17;;;0.60;;
73695;SDS011;62000;42.262;12.210;2023-11-18T02:52:01;3.15;;;0.40;;
73695;SDS011;62000;42.262;12.210;2023-11-18T02:54:28;3.65;;;0.50;;
73695;SDS011;62000;42.262;12.210;2023-11-18T02:56:54;3.70;;;0.52;;
73695;SDS011;62000;42.262;12.210;2023-11-18T02:59:21;4.95;;;0.40;;
73695;SDS011;62000;42.262;12.210;2023-11-18T03:01:48;2.38;;;0.45;;
73695;SDS011;62000;42.262;12.210;2023-11-18T03:04:14;3.97;;;0.90;;
73695;SDS011;62000;42.262;12.210;2023-11-18T03:06:41;1.15;;;0.20;;
73695;SDS011;62000;42.262;12.210;2023-11-18T03:09:08;3.28;;;0.50;;
73695;SDS011;62000;42.262;12.210;2023-11-18T03:11:35;2.35;;;0.60;;
73695;SDS011;62000;42.262;12.210;2023-11-18T03:14:03;3.80;;;0.60;;
73695;SDS011;62000;42.262;12.210;2023-11-18T03:16:30;3.05;;;0.50;;
73695;SDS011;62000;42.262;12.210;2023-11-18T03:18:56;2.85;;;0.50;;
73695;SDS011;62000;42.262;12.210;2023-11-18T03:23:51;3.60;;;0.75;;
73695;SDS011;62000;42.262;12.210;2023-11-18T03:26:19;2.92;;;0.60;;
73695;SDS011;62000;42.262;12.210;2023-11-18T03:28:45;1.98;;;0.30;;
73695;SDS011;62000;42.262;12.210;2023-11-18T03:31:12;2.92;;;0.50;;
73695;SDS011;62000;42.262;12.210;2023-11-18T03:33:39;2.60;;;0.45;;
73695;SDS011;62000;42.262;12.210;2023-11-18T03:36:06;2.83;;;0.50;;
73695;SDS011;62000;42.262;12.210;2023-11-18T03:38:32;2.58;;;0.35;;
73695;SDS011;62000;42.262;12.210;2023-11-18T03:41:00;2.13;;;0.40;;
73695;SDS011;62000;42.262;12.210;2023-11-18T03:43:26;2.92;;;0.57;;
73695;SDS011;62000;42.262;12.210;2023-11-18T03:45:54;2.35;;;0.60;;
73695;SDS011;62000;42.262;12.210;2023-11-18T03:48:22;3.08;;;0.55;;
73695;SDS011;62000;42.262;12.210;2023-11-18T03:50:49;3.45;;;0.60;;
73695;SDS011;62000;42.262;12.210;2023-11-18T03:53:16;2.47;;;0.57;;
73695;SDS011;62000;42.262;12.210;2023-11-18T03:55:42;7.22;;;0.80;;
73695;SDS011;62000;42.262;12.210;2023-11-18T03:58:09;1.88;;;0.40;;
73695;SDS011;62000;42.262;12.210;2023-11-18T04:00:35;3.70;;;0.43;;
73695;SDS011;62000;42.262;12.210;2023-11-18T04:03:02;3.30;;;0.47;;
73695;SDS011;62000;42.262;12.210;2023-11-18T04:05:32;2.05;;;0.40;;
73695;SDS011;62000;42.262;12.210;2023-11-18T04:08:00;2.92;;;0.52;;
73695;SDS011;62000;42.262;12.210;2023-11-18T04:10:26;3.80;;;0.30;;
73695;SDS011;62000;42.262;12.210;2023-11-18T04:12:53;5.50;;;1.40;;
73695;SDS011;62000;42.262;12.210;2023-11-18T04:15:19;1.98;;;0.50;;
73695;SDS011;62000;42.262;12.210;2023-11-18T04:17:46;1.88;;;0.30;;
73695;SDS011;62000;42.262;12.210;2023-11-18T04:20:12;2.25;;;0.52;;
73695;SDS011;62000;42.262;12.210;2023-11-18T04:22:41;3.47;;;0.40;;
73695;SDS011;62000;42.262;12.210;2023-11-18T04:25:08;2.63;;;0.43;;
73695;SDS011;62000;42.262;12.210;2023-11-18T04:32:29;2.20;;;0.40;;
73695;SDS011;62000;42.262;12.210;2023-11-18T04:34:58;3.00;;;0.30;;
73695;SDS011;62000;42.262;12.210;2023-11-18T04:42:25;2.72;;;0.32;;
73695;SDS011;62000;42.262;12.210;2023-11-18T04:44:55;2.45;;;0.60;;
73695;SDS011;62000;42.262;12.210;2023-11-18T04:47:22;1.92;;;0.30;;
73695;SDS011;62000;42.262;12.210;2023-11-18T04:49:50;0.95;;;0.15;;
73695;SDS011;62000;42.262;12.210;2023-11-18T04:52:17;1.60;;;0.20;;
73695;SDS011;62000;42.262;12.210;2023-11-18T04:54:44;1.50;;;0.22;;
73695;SDS011;62000;42.262;12.210;2023-11-18T04:57:13;2.10;;;0.40;;
73695;SDS011;62000;42.262;12.210;2023-11-18T04:59:41;2.17;;;0.40;;
73695;SDS011;62000;42.262;12.210;2023-11-18T05:02:08;2.47;;;0.30;;
73695;SDS011;62000;42.262;12.210;2023-11-18T05:04:34;5.65;;;0.40;;
73695;SDS011;62000;42.262;12.210;2023-11-18T05:07:01;2.30;;;0.43;;
73695;SDS011;62000;42.262;12.210;2023-11-18T05:09:28;2.00;;;0.40;;
73695;SDS011;62000;42.262;12.210;2023-11-18T05:11:54;2.55;;;0.60;;
73695;SDS011;62000;42.262;12.210;2023-11-18T05:14:21;1.77;;;0.28;;
73695;SDS011;62000;42.262;12.210;2023-11-18T05:16:47;1.25;;;0.30;;
73695;SDS011;62000;42.262;12.210;2023-11-18T05:19:14;1.90;;;0.28;;
73695;SDS011;62000;42.262;12.210;2023-11-18T05:24:09;2.67;;;0.50;;
73695;SDS011;62000;42.262;12.210;2023-11-18T05:26:35;1.65;;;0.22;;
73695;SDS011;62000;42.262;12.210;2023-11-18T05:29:02;1.38;;;0.20;;
73695;SDS011;62000;42.262;12.210;2023-11-18T05:31:28;3.85;;;0.30;;
73695;SDS011;62000;42.262;12.210;2023-11-18T05:33:57;1.33;;;0.30;;
73695;SDS011;62000;42.262;12.210;2023-11-18T05:36:23;1.58;;;0.38;;
73695;SDS011;62000;42.262;12.210;2023-11-18T05:38:53;1.00;;;0.20;;
73695;SDS011;62000;42.262;12.210;2023-11-18T05:41:20;1.73;;;0.25;;
73695;SDS011;62000;42.262;12.210;2023-11-18T05:43:56;1.33;;;0.20;;
73695;SDS011;62000;42.262;12.210;2023-11-18T05:46:23;5.63;;;0.30;;
73695;SDS011;62000;42.262;12.210;2023-11-18T05:48:51;2.05;;;0.40;;
73695;SDS011;62000;42.262;12.210;2023-11-18T05:51:19;1.35;;;0.28;;
73695;SDS011;62000;42.262;12.210;2023-11-18T05:53:46;2.88;;;0.43;;
73695;SDS011;62000;42.262;12.210;2023-11-18T05:56:13;4.10;;;0.70;;
73695;SDS011;62000;42.262;12.210;2023-11-18T05:58:40;2.95;;;0.60;;
73695;SDS011;62000;42.262;12.210;2023-11-18T06:01:08;3.42;;;0.57;;
73695;SDS011;62000;42.262;12.210;2023-11-18T06:03:36;3.15;;;0.32;;
73695;SDS011;62000;42.262;12.210;2023-11-18T06:06:07;4.13;;;0.43;;
73695;SDS011;62000;42.262;12.210;2023-11-18T06:08:35;1.45;;;0.32;;
73695;SDS011;62000;42.262;12.210;2023-11-18T06:11:04;2.47;;;0.40;;
73695;SDS011;62000;42.262;12.210;2023-11-18T06:13:39;2.42;;;0.43;;
73695;SDS011;62000;42.262;12.210;2023-11-18T06:16:08;1.83;;;0.30;;
73695;SDS011;62000;42.262;12.210;2023-11-18T06:18:40;2.97;;;0.52;;
73695;SDS011;62000;42.262;12.210;2023-11-18T06:21:09;4.55;;;1.10;;
73695;SDS011;62000;42.262;12.210;2023-11-18T06:23:44;3.70;;;0.80;;
73695;SDS011;62000;42.262;12.210;2023-11-18T06:26:14;5.75;;;0.70;;
73695;SDS011;62000;42.262;12.210;2023-11-18T06:28:41;4.15;;;0.43;;
73695;SDS011;62000;42.262;12.210;2023-11-18T06:31:09;2.15;;;0.60;;
73695;SDS011;62000;42.262;12.210;2023-11-18T06:33:39;1.27;;;0.25;;
73695;SDS011;62000;42.262;12.210;2023-11-18T06:36:16;2.22;;;0.40;;
73695;SDS011;62000;42.262;12.210;2023-11-18T06:38:43;4.07;;;0.30;;
73695;SDS011;62000;42.262;12.210;2023-11-18T06:41:09;1.58;;;0.35;;
73695;SDS011;62000;42.262;12.210;2023-11-18T06:43:41;0.65;;;0.10;;
73695;SDS011;62000;42.262;12.210;2023-11-18T06:48:49;1.90;;;0.30;;
73695;SDS011;62000;42.262;12.210;2023-11-18T06:51:16;1.65;;;0.28;;
73695;SDS011;62000;42.262;12.210;2023-11-18T06:53:42;3.08;;;0.40;;
73695;SDS011;62000;42.262;12.210;2023-11-18T06:56:10;2.35;;;0.43;;
73695;SDS011;62000;42.262;12.210;2023-11-18T06:58:37;1.50;;;0.30;;
73695;SDS011;62000;42.262;12.210;2023-11-18T07:01:03;2.05;;;0.35;;
73695;SDS011;62000;42.262;12.210;2023-11-18T07:03:31;1.63;;;0.40;;
73695;SDS011;62000;42.262;12.210;2023-11-18T07:05:58;2.72;;;0.30;;
73695;SDS011;62000;42.262;12.210;2023-11-18T07:08:24;3.40;;;0.43;;
73695;SDS011;62000;42.262;12.210;2023-11-18T07:10:51;2.33;;;0.32;;
73695;SDS011;62000;42.262;12.210;2023-11-18T07:13:17;1.83;;;0.30;;
73695;SDS011;62000;42.262;12.210;2023-11-18T07:15:44;1.55;;;0.20;;
73695;SDS011;62000;42.262;12.210;2023-11-18T07:18:11;1.75;;;0.32;;
73695;SDS011;62000;42.262;12.210;2023-11-18T07:20:37;2.42;;;0.43;;
73695;SDS011;62000;42.262;12.210;2023-11-18T07:23:04;1.35;;;0.25;;
73695;SDS011;62000;42.262;12.210;2023-11-18T07:25:31;2.08;;;0.30;;
73695;SDS011;62000;42.262;12.210;2023-11-18T07:27:59;1.23;;;0.20;;
73695;SDS011;62000;42.262;12.210;2023-11-18T07:30:26;1.80;;;0.20;;
73695;SDS011;62000;42.262;12.210;2023-11-18T07:32:52;1.63;;;0.20;;
73695;SDS011;62000;42.262;12.210;2023-11-18T07:35:19;1.88;;;0.40;;
73695;SDS011;62000;42.262;12.210;2023-11-18T07:37:45;3.83;;;0.70;;
73695;SDS011;62000;42.262;12.210;2023-11-18T07:40:12;3.42;;;0.65;;
73695;SDS011;62000;42.262;12.210;2023-11-18T07:42:40;3.28;;;0.77;;
73695;SDS011;62000;42.262;12.210;2023-11-18T07:45:07;2.58;;;0.43;;
73695;SDS011;62000;42.262;12.210;2023-11-18T07:47:43;3.13;;;0.40;;
73695;SDS011;62000;42.262;12.210;2023-11-18T07:52:39;1.95;;;0.45;;
73695;SDS011;62000;42.262;12.210;2023-11-18T07:55:06;2.53;;;0.60;;
73695;SDS011;62000;42.262;12.210;2023-11-18T07:57:36;5.57;;;0.73;;
73695;SDS011;62000;42.262;12.210;2023-11-18T08:00:03;2.97;;;0.60;;
73695;SDS011;62000;42.262;12.210;2023-11-18T08:02:35;3.42;;;0.57;;
73695;SDS011;62000;42.262;12.210;2023-11-18T08:05:05;3.28;;;0.60;;
73695;SDS011;62000;42.262;12.210;2023-11-18T08:07:38;7.63;;;1.23;;
73695;SDS011;62000;42.262;12.210;2023-11-18T08:10:05;4.80;;;0.90;;
73695;SDS011;62000;42.262;12.210;2023-11-18T08:12:32;6.78;;;1.17;;
73695;SDS011;62000;42.262;12.210;2023-11-18T08:14:59;4.32;;;1.25;;
73695;SDS011;62000;42.262;12.210;2023-11-18T08:17:26;5.30;;;1.40;;
73695;SDS011;62000;42.262;12.210;2023-11-18T08:19:52;4.97;;;1.20;;
73695;SDS011;62000;42.262;12.210;2023-11-18T08:22:19;6.38;;;1.42;;
73695;SDS011;62000;42.262;12.210;2023-11-18T08:24:48;5.20;;;0.90;;
73695;SDS011;62000;42.262;12.210;2023-11-18T08:27:15;5.10;;;1.20;;
73695;SDS011;62000;42.262;12.210;2023-11-18T08:29:42;7.03;;;1.52;;
73695;SDS011;62000;42.262;12.210;2023-11-18T08:32:08;8.23;;;1.23;;
73695;SDS011;62000;42.262;12.210;2023-11-18T08:34:35;5.43;;;1.48;;
73695;SDS011;62000;42.262;12.210;2023-11-18T08:37:06;5.00;;;1.00;;
73695;SDS011;62000;42.262;12.210;2023-11-18T08:39:32;5.00;;;1.30;;
73695;SDS011;62000;42.262;12.210;2023-11-18T08:41:59;5.28;;;1.10;;
73695;SDS011;62000;42.262;12.210;2023-11-18T08:44:26;5.40;;;1.08;;
73695;SDS011;62000;42.262;12.210;2023-11-18T08:46:52;3.88;;;0.85;;
73695;SDS011;62000;42.262;12.210;2023-11-18T08:49:19;5.78;;;1.10;;
73695;SDS011;62000;42.262;12.210;2023-11-18T08:51:48;6.22;;;1.10;;
73695;SDS011;62000;42.262;12.210;2023-11-18T08:54:21;4.60;;;1.00;;
73695;SDS011;62000;42.262;12.210;2023-11-18T08:56:48;7.10;;;1.23;;
73695;SDS011;62000;42.262;12.210;2023-11-18T08:59:19;6.75;;;1.33;;
73695;SDS011;62000;42.262;12.210;2023-11-18T09:01:51;5.43;;;1.02;;
73695;SDS011;62000;42.262;12.210;2023-11-18T09:04:21;5.15;;;1.23;;
73695;SDS011;62000;42.262;12.210;2023-11-18T09:06:49;6.22;;;1.83;;
73695;SDS011;62000;42.262;12.210;2023-11-18T09:09:20;5.43;;;1.27;;
73695;SDS011;62000;42.262;12.210;2023-11-18T09:11:58;5.53;;;1.60;;
73695;SDS011;62000;42.262;12.210;2023-11-18T09:14:25;5.25;;;1.30;;
73695;SDS011;62000;42.262;12.210;2023-11-18T09:16:51;4.65;;;0.95;;
73695;SDS011;62000;42.262;12.210;2023-11-18T09:19:20;5.30;;;1.40;;
73695;SDS011;62000;42.262;12.210;2023-11-18T09:21:47;6.50;;;1.10;;
73695;SDS011;62000;42.262;12.210;2023-11-18T09:24:14;5.60;;;1.50;;
73695;SDS011;62000;42.262;12.210;2023-11-18T09:26:45;5.95;;;1.40;;
73695;SDS011;62000;42.262;12.210;2023-11-18T09:29:16;6.85;;;1.73;;
73695;SDS011;62000;42.262;12.210;2023-11-18T09:31:47;4.40;;;1.02;;
73695;SDS011;62000;42.262;12.210;2023-11-18T09:34:14;5.97;;;1.00;;
73695;SDS011;62000;42.262;12.210;2023-11-18T09:36:43;5.72;;;1.48;;
73695;SDS011;62000;42.262;12.210;2023-11-18T09:39:10;6.43;;;2.10;;
73695;SDS011;62000;42.262;12.210;2023-11-18T09:41:55;8.05;;;2.13;;
73695;SDS011;62000;42.262;12.210;2023-11-18T09:44:22;8.27;;;2.03;;
73695;SDS011;62000;42.262;12.210;2023-11-18T09:46:51;8.27;;;2.17;;
73695;SDS011;62000;42.262;12.210;2023-11-18T09:49:28;6.18;;;1.73;;
73695;SDS011;62000;42.262;12.210;2023-11-18T09:52:04;5.50;;;1.30;;
73695;SDS011;62000;42.262;12.210;2023-11-18T09:55:33;5.70;;;1.20;;
73695;SDS011;62000;42.262;12.210;2023-11-18T09:57:32;4.45;;;1.13;;
73695;SDS011;62000;42.262;12.210;2023-11-18T10:00:06;3.38;;;0.80;;
73695;SDS011;62000;42.262;12.210;2023-11-18T10:02:52;3.65;;;0.80;;
73695;SDS011;62000;42.262;12.210;2023-11-18T10:05:23;4.93;;;1.35;;
73695;SDS011;62000;42.262;12.210;2023-11-18T10:07:52;4.85;;;1.40;;
73695;SDS011;62000;42.262;12.210;2023-11-18T10:10:19;4.63;;;1.20;;
73695;SDS011;62000;42.262;12.210;2023-11-18T10:12:51;3.72;;;1.10;;
73695;SDS011;62000;42.262;12.210;2023-11-18T10:15:23;4.38;;;1.00;;
73695;SDS011;62000;42.262;12.210;2023-11-18T10:17:51;4.28;;;1.00;;
73695;SDS011;62000;42.262;12.210;2023-11-18T10:20:50;4.82;;;1.23;;
73695;SDS011;62000;42.262;12.210;2023-11-18T10:23:18;5.80;;;1.65;;
73695;SDS011;62000;42.262;12.210;2023-11-18T10:25:48;5.72;;;1.63;;
73695;SDS011;62000;42.262;12.210;2023-11-18T10:28:36;6.35;;;1.60;;
73695;SDS011;62000;42.262;12.210;2023-11-18T10:31:03;4.13;;;1.25;;
73695;SDS011;62000;42.262;12.210;2023-11-18T10:33:31;5.30;;;1.45;;
73695;SDS011;62000;42.262;12.210;2023-11-18T10:35:58;5.97;;;2.03;;
73695;SDS011;62000;42.262;12.210;2023-11-18T10:38:29;8.80;;;2.42;;
73695;SDS011;62000;42.262;12.210;2023-11-18T10:40:57;9.63;;;2.53;;
73695;SDS011;62000;42.262;12.210;2023-11-18T10:43:26;7.25;;;1.90;;
73695;SDS011;62000;42.262;12.210;2023-11-18T10:51:08;4.57;;;1.00;;
73695;SDS011;62000;42.262;12.210;2023-11-18T10:53:42;7.13;;;1.45;;
73695;SDS011;62000;42.262;12.210;2023-11-18T10:59:06;5.35;;;1.40;;
73695;SDS011;62000;42.262;12.210;2023-11-18T11:01:34;5.70;;;1.55;;
73695;SDS011;62000;42.262;12.210;2023-11-18T11:04:08;3.05;;;0.70;;
73695;SDS011;62000;42.262;12.210;2023-11-18T11:06:41;5.38;;;1.08;;
73695;SDS011;62000;42.262;12.210;2023-11-18T11:09:08;7.00;;;1.80;;
73695;SDS011;62000;42.262;12.210;2023-11-18T11:11:53;9.38;;;2.75;;
73695;SDS011;62000;42.262;12.210;2023-11-18T11:14:20;9.00;;;2.42;;
73695;SDS011;62000;42.262;12.210;2023-11-18T11:16:54;6.65;;;1.77;;
73695;SDS011;62000;42.262;12.210;2023-11-18T11:19:24;3.53;;;0.80;;
73695;SDS011;62000;42.262;12.210;2023-11-18T11:22:10;3.08;;;0.73;;
73695;SDS011;62000;42.262;12.210;2023-11-18T11:24:47;4.50;;;1.40;;
73695;SDS011;62000;42.262;12.210;2023-11-18T11:29:59;6.45;;;2.13;;
73695;SDS011;62000;42.262;12.210;2023-11-18T11:32:45;2.72;;;0.60;;
73695;SDS011;62000;42.262;12.210;2023-11-18T11:35:16;3.25;;;0.73;;
73695;SDS011;62000;42.262;12.210;2023-11-18T11:37:47;3.35;;;0.73;;
73695;SDS011;62000;42.262;12.210;2023-11-18T11:40:14;3.00;;;0.63;;
73695;SDS011;62000;42.262;12.210;2023-11-18T11:42:50;3.20;;;0.63;;
73695;SDS011;62000;42.262;12.210;2023-11-18T11:45:21;2.53;;;0.50;;
73695;SDS011;62000;42.262;12.210;2023-11-18T11:47:54;3.60;;;0.90;;
73695;SDS011;62000;42.262;12.210;2023-11-18T11:50:42;3.88;;;1.00;;
73695;SDS011;62000;42.262;12.210;2023-11-18T11:53:22;3.88;;;1.10;;
73695;SDS011;62000;42.262;12.210;2023-11-18T11:55:54;3.88;;;0.85;;
73695;SDS011;62000;42.262;12.210;2023-11-18T11:58:34;3.80;;;0.57;;
73695;SDS011;62000;42.262;12.210;2023-11-18T12:04:12;4.50;;;0.90;;
73695;SDS011;62000;42.262;12.210;2023-11-18T12:06:47;3.88;;;1.10;;
73695;SDS011;62000;42.262;12.210;2023-11-18T12:09:18;4.40;;;0.90;;
73695;SDS011;62000;42.262;12.210;2023-11-18T12:14:14;3.88;;;0.82;;
73695;SDS011;62000;42.262;12.210;2023-11-18T12:17:06;4.07;;;1.05;;
73695;SDS011;62000;42.262;12.210;2023-11-18T12:19:39;4.65;;;1.40;;
73695;SDS011;62000;42.262;12.210;2023-11-18T12:22:13;3.47;;;0.82;;
73695;SDS011;62000;42.262;12.210;2023-11-18T12:25:28;3.80;;;0.82;;
73695;SDS011;62000;42.262;12.210;2023-11-18T12:27:42;2.72;;;0.90;;
73695;SDS011;62000;42.262;12.210;2023-11-18T12:35:27;3.10;;;0.52;;
73695;SDS011;62000;42.262;12.210;2023-11-18T12:40:53;3.60;;;0.88;;
73695;SDS011;62000;42.262;12.210;2023-11-18T12:46:28;5.97;;;0.85;;
73695;SDS011;62000;42.262;12.210;2023-11-18T12:49:05;3.58;;;0.75;;
73695;SDS011;62000;42.262;12.210;2023-11-18T12:51:32;6.35;;;1.42;;
73695;SDS011;62000;42.262;12.210;2023-11-18T12:54:01;4.90;;;2.05;;
73695;SDS011;62000;42.262;12.210;2023-11-18T12:56:28;2.72;;;0.47;;
73695;SDS011;62000;42.262;12.210;2023-11-18T12:58:55;2.42;;;0.60;;
73695;SDS011;62000;42.262;12.210;2023-11-18T13:01:22;2.38;;;0.43;;
73695;SDS011;62000;42.262;12.210;2023-11-18T13:03:48;2.25;;;0.40;;
73695;SDS011;62000;42.262;12.210;2023-11-18T13:06:15;2.42;;;0.50;;
73695;SDS011;62000;42.262;12.210;2023-11-18T13:08:41;2.75;;;0.77;;
73695;SDS011;62000;42.262;12.210;2023-11-18T13:11:08;2.75;;;0.50;;
73695;SDS011;62000;42.262;12.210;2023-11-18T13:13:41;2.53;;;0.52;;
73695;SDS011;62000;42.262;12.210;2023-11-18T13:16:08;3.95;;;0.50;;
73695;SDS011;62000;42.262;12.210;2023-11-18T13:18:41;3.28;;;0.70;;
73695;SDS011;62000;42.262;12.210;2023-11-18T13:21:13;2.92;;;0.90;;
73695;SDS011;62000;42.262;12.210;2023-11-18T13:23:39;2.55;;;0.60;;
73695;SDS011;62000;42.262;12.210;2023-11-18T13:26:07;2.20;;;0.50;;
73695;SDS011;62000;42.262;12.210;2023-11-18T13:28:35;3.17;;;0.80;;
73695;SDS011;62000;42.262;12.210;2023-11-18T13:31:01;4.65;;;1.13;;
73695;SDS011;62000;42.262;12.210;2023-11-18T13:33:35;3.20;;;0.75;;
73695;SDS011;62000;42.262;12.210;2023-11-18T13:36:02;4.13;;;1.00;;
73695;SDS011;62000;42.262;12.210;2023-11-18T13:38:31;5.25;;;1.20;;
73695;SDS011;62000;42.262;12.210;2023-11-18T13:43:24;21.00;;;4.85;;
73695;SDS011;62000;42.262;12.210;2023-11-18T13:45:51;9.02;;;2.05;;
73695;SDS011;62000;42.262;12.210;2023-11-18T13:48:18;5.32;;;1.23;;
73695;SDS011;62000;42.262;12.210;2023-11-18T13:50:45;13.07;;;2.47;;
73695;SDS011;62000;42.262;12.210;2023-11-18T13:53:11;14.70;;;3.25;;
73695;SDS011;62000;42.262;12.210;2023-11-18T13:55:38;10.48;;;2.67;;
73695;SDS011;62000;42.262;12.210;2023-11-18T13:58:06;4.15;;;0.85;;
73695;SDS011;62000;42.262;12.210;2023-11-18T14:00:32;5.10;;;0.98;;
73695;SDS011;62000;42.262;12.210;2023-11-18T14:02:59;4.85;;;0.70;;
73695;SDS011;62000;42.262;12.210;2023-11-18T14:05:26;4.32;;;1.05;;
73695;SDS011;62000;42.262;12.210;2023-11-18T14:07:52;5.57;;;1.00;;
73695;SDS011;62000;42.262;12.210;2023-11-18T14:10:22;4.15;;;1.02;;
73695;SDS011;62000;42.262;12.210;2023-11-18T14:13:00;5.20;;;1.33;;
73695;SDS011;62000;42.262;12.210;2023-11-18T14:15:28;4.35;;;1.17;;
73695;SDS011;62000;42.262;12.210;2023-11-18T14:17:55;7.85;;;2.47;;
73695;SDS011;62000;42.262;12.210;2023-11-18T14:20:23;7.15;;;1.90;;
73695;SDS011;62000;42.262;12.210;2023-11-18T14:22:49;5.85;;;1.35;;
73695;SDS011;62000;42.262;12.210;2023-11-18T14:25:17;5.38;;;1.50;;
73695;SDS011;62000;42.262;12.210;2023-11-18T14:27:43;5.45;;;0.95;;
73695;SDS011;62000;42.262;12.210;2023-11-18T14:30:10;4.18;;;1.13;;
73695;SDS011;62000;42.262;12.210;2023-11-18T14:32:38;3.50;;;0.57;;
73695;SDS011;62000;42.262;12.210;2023-11-18T14:35:04;6.10;;;1.30;;
73695;SDS011;62000;42.262;12.210;2023-11-18T14:37:38;5.78;;;1.23;;
73695;SDS011;62000;42.262;12.210;2023-11-18T14:40:11;4.93;;;1.13;;
73695;SDS011;62000;42.262;12.210;2023-11-18T14:42:42;9.38;;;2.33;;
73695;SDS011;62000;42.262;12.210;2023-11-18T14:45:09;4.78;;;1.17;;
73695;SDS011;62000;42.262;12.210;2023-11-18T14:47:38;6.25;;;1.52;;
73695;SDS011;62000;42.262;12.210;2023-11-18T14:50:05;7.68;;;2.00;;
73695;SDS011;62000;42.262;12.210;2023-11-18T14:52:41;7.43;;;1.45;;
73695;SDS011;62000;42.262;12.210;2023-11-18T14:55:08;7.93;;;1.35;;
73695;SDS011;62000;42.262;12.210;2023-11-18T14:57:38;8.38;;;2.08;;
73695;SDS011;62000;42.262;12.210;2023-11-18T15:00:05;8.68;;;2.10;;
73695;SDS011;62000;42.262;12.210;2023-11-18T15:02:33;9.07;;;2.00;;
73695;SDS011;62000;42.262;12.210;2023-11-18T15:05:00;6.63;;;1.15;;
73695;SDS011;62000;42.262;12.210;2023-11-18T15:07:31;5.78;;;1.13;;
73695;SDS011;62000;42.262;12.210;2023-11-18T15:09:57;8.60;;;2.72;;
73695;SDS011;62000;42.262;12.210;2023-11-18T15:12:24;6.28;;;1.42;;
73695;SDS011;62000;42.262;12.210;2023-11-18T15:14:50;3.78;;;0.85;;
73695;SDS011;62000;42.262;12.210;2023-11-18T15:17:17;4.32;;;0.60;;
73695;SDS011;62000;42.262;12.210;2023-11-18T15:19:43;10.68;;;2.38;;
73695;SDS011;62000;42.262;12.210;2023-11-18T15:22:10;13.30;;;3.53;;
73695;SDS011;62000;42.262;12.210;2023-11-18T15:24:36;14.35;;;3.60;;
73695;SDS011;62000;42.262;12.210;2023-11-18T15:27:03;14.90;;;4.10;;
73695;SDS011;62000;42.262;12.210;2023-11-18T15:29:29;16.83;;;3.83;;
73695;SDS011;62000;42.262;12.210;2023-11-18T15:32:03;13.38;;;2.60;;
73695;SDS011;62000;42.262;12.210;2023-11-18T15:34:29;10.43;;;2.00;;